Terminal Aerodrome Forecast
Issued by NWS

Home | Current Version | Previous Version | Text Only | Print | Product List | Glossary On
Versions: 1 2 3 4 5 6 7 8 9 10 11 12 13 14 15 16 17 18 19 20 21 22 23 24 25 26 27
000
FTUS43 KLOT 231024 AAC
TAFORD
TAF AMD
KORD 231024Z 2310/2412 36008KT 5SM -RA SCT009 SCT012 OVC035
      TEMPO 2310/2312 2SM -TSRA BKN015CB OVC035
     FM231300 36011KT P6SM VCSH BKN012 BKN050
     FM231500 35010KT P6SM SCT020 BKN035
     FM231800 33011G18KT P6SM SCT035 BKN200
     FM240100 30011KT P6SM SCT250=

USA.gov is the U.S. government's official web portal to all federal, state and local government web resources and services.